CO28 weather

Suckla Farms Balloonport
Dacono, Colorado, United States

Public forecast

Using degrees Fahrenheit for public forecast. Weather courtesy of forecast.io.

METAR (pilot weather report)

Closest report is Erie Municipal Airport, 7.7 nm (14.3 km) WSW. Retrieved 2019/04/22 05:36 UTC (2 minutes ago):

KEIK 220536Z AUTO 36010KT 10SM SCT013 BKN020 OVC024 08/07 A3016 RMK AO2 T00830067

TAF (pilot weather forecast)

Closest forecast is Rocky Mountain Metropolitan Airport, 13.7 nm (25.4 km) SW. Retrieved 2019/04/22 04:06 UTC (2 hours ago):

TAF COR KBJC 220403Z 2204/2224 31006KT P6SM VCSH FEW020 OVC070 FM221200 02010KT P6SM BKN010 OVC020 TEMPO 2212/2216 5SM -SHRA BKN006 FM221700 02007KT P6SM -SHRA SCT008 BKN015